createdAt,value
2018-05-18T03:17:14.456Z,14.27
2018-05-18T03:19:43.030Z,14.39
2018-05-18T03:22:12.755Z,14.52
2018-05-18T03:24:43.316Z,14.66
2018-05-18T03:27:11.890Z,14.78
2018-05-18T03:29:40.458Z,14.91
2018-05-18T03:32:09.080Z,15.03
2018-05-18T03:34:39.478Z,15.16
2018-05-18T03:37:09.209Z,15.26
2018-05-18T03:39:37.873Z,15.34
2018-05-18T03:42:06.433Z,15.39
2018-05-18T03:44:35.522Z,15.50
2018-05-18T03:49:38.398Z,15.64
2018-05-18T03:52:06.963Z,15.68
2018-05-18T03:54:36.373Z,15.78
2018-05-18T03:57:04.936Z,15.84
2018-05-18T03:59:34.888Z,15.95
2018-05-18T04:02:15.099Z,15.94
2018-05-18T04:04:55.385Z,15.90
2018-05-18T04:07:36.296Z,15.92
2018-05-18T04:10:04.557Z,15.90
2018-05-18T04:12:34.831Z,15.90
2018-05-18T04:15:03.399Z,15.94
2018-05-18T04:17:31.952Z,15.99
2018-05-18T04:20:00.515Z,16.05
2018-05-18T04:22:29.095Z,16.09
2018-05-18T04:24:57.648Z,16.17
2018-05-18T04:27:26.210Z,16.12
2018-05-18T04:29:54.769Z,16.13
2018-05-18T04:32:23.428Z,16.21
2018-05-18T04:34:51.992Z,16.30
2018-05-18T04:37:20.560Z,16.39
2018-05-18T04:39:49.214Z,16.48
2018-05-18T04:42:18.935Z,16.61
2018-05-18T04:44:48.189Z,16.71
2018-05-18T04:47:16.753Z,16.94
2018-05-18T04:49:45.347Z,17.09
2018-05-18T04:52:13.912Z,17.46
2018-05-18T04:54:43.553Z,18.67
2018-05-18T04:57:12.119Z,19.75
2018-05-18T04:59:41.314Z,20.70
2018-05-18T05:02:09.919Z,21.25
2018-05-18T05:04:38.511Z,21.78
2018-05-18T05:07:07.059Z,22.17
2018-05-18T05:09:35.658Z,22.61
2018-05-18T05:12:04.248Z,22.64
2018-05-18T05:14:32.956Z,22.25
2018-05-18T05:17:01.558Z,22.42
2018-05-18T05:19:30.110Z,22.80
2018-05-18T05:21:59.428Z,23.09
2018-05-18T05:24:27.983Z,23.19
2018-05-18T05:26:56.560Z,23.09
2018-05-18T05:29:25.135Z,22.77
2018-05-18T05:31:53.702Z,22.66
2018-05-18T05:34:23.195Z,22.58
2018-05-18T05:36:51.761Z,22.44
2018-05-18T05:39:20.324Z,22.62
2018-05-18T05:41:48.947Z,22.15
2018-05-18T05:44:18.155Z,21.27
2018-05-18T05:46:46.842Z,20.95
2018-05-18T05:49:17.199Z,21.01
2018-05-18T05:51:49.450Z,20.96
2018-05-18T05:54:21.191Z,20.89
2018-05-18T05:56:50.747Z,20.80
2018-05-18T05:59:19.335Z,20.72
2018-05-18T06:01:47.964Z,20.63
2018-05-18T06:04:17.089Z,20.25
2018-05-18T06:06:45.651Z,20.33
2018-05-18T06:09:14.249Z,20.48
2018-05-18T06:11:42.835Z,20.44
2018-05-18T06:14:11.220Z,20.43
2018-05-18T06:16:39.834Z,20.37
2018-05-18T06:19:08.530Z,20.35
2018-05-18T06:21:39.302Z,20.42
2018-05-18T06:24:07.857Z,20.43
2018-05-18T06:26:36.418Z,20.35
2018-05-18T06:29:05.394Z,20.43
2018-05-18T06:31:33.966Z,20.38
2018-05-18T06:34:03.171Z,20.17
2018-05-18T06:36:31.748Z,20.26
2018-05-18T06:39:00.324Z,20.30
2018-05-18T06:41:29.964Z,20.28
2018-05-18T06:43:58.518Z,20.27
2018-05-18T06:46:28.425Z,20.17
2018-05-18T06:48:58.904Z,20.10
2018-05-18T06:51:28.227Z,20.03
2018-05-18T06:53:56.815Z,19.94
2018-05-18T06:56:30.255Z,19.97
2018-05-18T06:58:59.899Z,19.94
2018-05-18T07:01:28.538Z,20.01
2018-05-18T07:03:57.784Z,20.17
2018-05-18T07:06:26.831Z,20.24
2018-05-18T07:08:55.846Z,20.20
2018-05-18T07:11:24.827Z,20.21
2018-05-18T07:13:53.467Z,20.34
2018-05-18T07:16:22.035Z,20.34
2018-05-18T07:18:50.906Z,20.37
2018-05-18T07:21:19.523Z,20.37
2018-05-18T07:23:48.395Z,20.43
2018-05-18T07:28:56.448Z,20.86
2018-05-18T07:31:26.069Z,21.06
2018-05-18T07:33:56.129Z,21.16
2018-05-18T07:36:27.470Z,21.27
2018-05-18T07:38:57.999Z,21.49
2018-05-18T07:41:26.777Z,21.67
2018-05-18T07:43:55.488Z,21.69
2018-05-18T07:46:24.184Z,21.72
2018-05-18T07:48:52.746Z,21.78
2018-05-18T07:51:21.317Z,22.01
2018-05-18T07:53:49.888Z,22.13
2018-05-18T07:56:18.491Z,22.22
2018-05-18T07:58:47.074Z,22.33
2018-05-18T08:01:15.644Z,22.50
2018-05-18T08:03:44.206Z,22.58
2018-05-18T08:06:12.755Z,22.48
2018-05-18T08:08:41.337Z,22.54
2018-05-18T08:11:09.557Z,22.78
2018-05-18T08:13:38.142Z,22.90
2018-05-18T08:16:06.722Z,23.06
2018-05-18T08:18:35.317Z,23.08
2018-05-18T08:21:03.910Z,22.94
2018-05-18T08:23:40.444Z,23.20
2018-05-18T08:26:09.326Z,23.39
2018-05-18T08:28:49.022Z,23.24
2018-05-18T08:31:17.642Z,23.05
2018-05-18T08:33:46.212Z,22.98
2018-05-18T08:36:14.795Z,22.88
2018-05-18T08:38:43.376Z,23.00
2018-05-18T08:41:11.991Z,23.11
2018-05-18T08:43:40.557Z,23.33
2018-05-18T08:46:09.302Z,23.59
2018-05-18T08:48:37.910Z,23.61
2018-05-18T08:51:06.486Z,23.48
2018-05-18T08:53:35.376Z,23.74
2018-05-18T08:56:04.070Z,23.65
2018-05-18T08:58:32.783Z,23.52
2018-05-18T09:01:01.339Z,23.50
2018-05-18T09:03:29.933Z,23.45
2018-05-18T09:05:58.677Z,23.69
2018-05-18T09:08:27.239Z,23.71
2018-05-18T09:10:55.792Z,23.58
2018-05-18T09:13:24.382Z,23.14
2018-05-18T09:15:53.163Z,23.48
2018-05-18T09:18:21.919Z,23.63
2018-05-18T09:20:50.484Z,23.69
2018-05-18T09:23:19.039Z,23.60
2018-05-18T09:25:47.641Z,23.61
2018-05-18T09:28:16.215Z,23.68
2018-05-18T09:30:44.788Z,23.82
2018-05-18T09:33:13.347Z,23.77
2018-05-18T09:35:41.916Z,23.82
2018-05-18T09:38:10.511Z,24.01
2018-05-18T09:40:39.076Z,24.15
2018-05-18T09:43:07.630Z,24.12
2018-05-18T09:45:36.253Z,24.26
2018-05-18T09:48:04.812Z,24.51
2018-05-18T09:50:33.379Z,24.64
2018-05-18T09:53:02.888Z,24.60
2018-05-18T09:55:31.658Z,24.77
2018-05-18T09:58:00.213Z,24.91
2018-05-18T10:00:28.819Z,24.54
2018-05-18T10:02:57.414Z,24.69
2018-05-18T10:05:25.959Z,24.65
2018-05-18T10:07:54.616Z,24.69
2018-05-18T10:10:23.159Z,24.65
2018-05-18T10:12:51.731Z,24.57
2018-05-18T10:15:20.343Z,24.65
2018-05-18T10:17:48.946Z,24.39
2018-05-18T10:20:17.511Z,24.50
2018-05-18T10:22:46.083Z,24.67
2018-05-18T10:25:14.295Z,24.76
2018-05-18T10:27:42.846Z,24.55
2018-05-18T10:30:11.434Z,24.26
2018-05-18T10:32:40.035Z,24.13
2018-05-18T10:35:08.642Z,24.12
2018-05-18T10:37:37.207Z,24.33
2018-05-18T10:40:05.786Z,24.47
2018-05-18T10:42:34.352Z,24.44
2018-05-18T10:45:02.926Z,24.46
2018-05-18T10:47:31.503Z,24.45
2018-05-18T10:50:00.070Z,24.57
2018-05-18T10:52:28.640Z,24.50
2018-05-18T10:54:57.205Z,24.84
2018-05-18T10:57:25.764Z,25.05
2018-05-18T10:59:53.954Z,25.02
2018-05-18T11:02:22.507Z,24.97
2018-05-18T11:04:51.073Z,24.84
2018-05-18T11:07:19.866Z,24.91
2018-05-18T11:09:48.472Z,24.98
2018-05-18T11:12:17.123Z,25.09
2018-05-18T11:14:45.670Z,25.03
2018-05-18T11:17:14.219Z,25.22
2018-05-18T11:19:42.778Z,25.34
2018-05-18T11:22:11.343Z,25.43
2018-05-18T11:24:39.900Z,25.41
2018-05-18T11:27:08.514Z,25.23
2018-05-18T11:29:37.076Z,25.29
2018-05-18T11:32:05.644Z,25.44
2018-05-18T11:34:34.199Z,25.67
2018-05-18T11:37:02.753Z,25.70
2018-05-18T11:39:31.328Z,25.63
2018-05-18T11:41:59.909Z,25.72
2018-05-18T11:44:28.524Z,25.76
2018-05-18T11:46:57.091Z,25.54
2018-05-18T11:49:25.698Z,25.68
2018-05-18T11:51:53.947Z,25.91
2018-05-18T11:54:22.526Z,25.97
2018-05-18T11:56:51.106Z,25.99
2018-05-18T11:59:19.691Z,26.05
2018-05-18T12:01:49.182Z,25.82
2018-05-18T12:04:17.856Z,25.88
2018-05-18T12:06:46.420Z,25.97
2018-05-18T12:09:15.007Z,25.97
2018-05-18T12:11:43.594Z,26.17
2018-05-18T12:14:12.236Z,26.22
2018-05-18T12:16:40.916Z,26.20
2018-05-18T12:19:09.589Z,26.28
2018-05-18T12:21:38.202Z,26.29
2018-05-18T12:24:06.759Z,26.31
2018-05-18T12:26:35.345Z,26.16
2018-05-18T12:29:03.621Z,25.99
2018-05-18T12:31:32.227Z,25.89
2018-05-18T12:34:01.015Z,25.79
2018-05-18T12:36:29.579Z,25.65
2018-05-18T12:38:58.199Z,25.39
2018-05-18T12:41:26.794Z,25.53
2018-05-18T12:43:55.364Z,25.81
2018-05-18T12:46:29.119Z,26.11
2018-05-18T12:48:57.458Z,26.28
2018-05-18T12:51:26.016Z,26.25
2018-05-18T12:53:54.658Z,26.33
2018-05-18T12:56:23.429Z,26.37
2018-05-18T12:58:52.025Z,26.29
2018-05-18T13:01:20.586Z,26.40
2018-05-18T13:03:49.160Z,26.53
2018-05-18T13:06:17.776Z,26.45
2018-05-18T13:08:46.333Z,26.23
2018-05-18T13:11:14.887Z,26.16
2018-05-18T13:13:43.452Z,26.06
2018-05-18T13:16:12.069Z,26.05
2018-05-18T13:18:40.636Z,26.22
2018-05-18T13:21:09.233Z,26.25
2018-05-18T13:23:37.789Z,26.38
2018-05-18T13:26:06.354Z,26.56
2018-05-18T13:28:34.967Z,26.74
2018-05-18T13:31:03.534Z,26.75
2018-05-18T13:33:32.135Z,26.71
2018-05-18T13:36:00.691Z,26.76
2018-05-18T13:38:29.284Z,26.89
2018-05-18T13:40:57.998Z,26.66
2018-05-18T13:43:26.552Z,26.66
2018-05-18T13:45:55.124Z,26.66
2018-05-18T13:48:23.910Z,26.63
2018-05-18T13:50:52.466Z,26.75
2018-05-18T13:53:21.016Z,26.78
2018-05-18T13:55:49.579Z,26.72
2018-05-18T13:58:18.127Z,26.67
2018-05-18T14:00:46.729Z,26.52
2018-05-18T14:03:15.282Z,26.26
2018-05-18T14:05:43.832Z,26.12
2018-05-18T14:08:12.403Z,26.01
2018-05-18T14:10:40.968Z,26.03
2018-05-18T14:13:09.518Z,25.91
2018-05-18T14:15:38.116Z,26.11
2018-05-18T14:18:06.683Z,26.13
2018-05-18T14:20:35.239Z,25.91
2018-05-18T14:23:03.790Z,25.99
2018-05-18T14:25:32.352Z,25.84
2018-05-18T14:28:00.911Z,25.78
2018-05-18T14:30:29.478Z,25.90
2018-05-18T14:32:58.042Z,25.83
2018-05-18T14:35:26.633Z,25.98
2018-05-18T14:37:55.749Z,26.01
2018-05-18T14:40:24.450Z,26.04
2018-05-18T14:42:53.066Z,25.85
2018-05-18T14:45:21.637Z,25.90
2018-05-18T14:47:50.191Z,26.04
2018-05-18T14:50:18.452Z,26.01
2018-05-18T14:52:47.162Z,25.89
2018-05-18T14:55:15.726Z,25.80
2018-05-18T14:57:44.285Z,25.85
2018-05-18T15:00:12.935Z,25.94
2018-05-18T15:02:41.490Z,25.94
2018-05-18T15:05:10.079Z,25.98
2018-05-18T15:07:38.623Z,25.90
2018-05-18T15:10:07.188Z,25.95
2018-05-18T15:12:35.738Z,25.98
2018-05-18T15:15:04.299Z,25.94
2018-05-18T15:17:32.886Z,25.90
2018-05-18T15:20:01.476Z,25.87
2018-05-18T15:22:30.042Z,25.75
2018-05-18T15:24:58.611Z,25.61
2018-05-18T15:27:27.269Z,25.49
2018-05-18T15:29:55.963Z,25.50
2018-05-18T15:32:24.564Z,25.51
2018-05-18T15:34:53.144Z,25.52
2018-05-18T15:37:21.773Z,25.50
2018-05-18T15:39:50.593Z,25.51
2018-05-18T15:42:19.170Z,25.51
2018-05-18T15:44:47.764Z,25.54
2018-05-18T15:47:16.724Z,25.57
2018-05-18T15:49:45.528Z,25.61
2018-05-18T15:52:14.080Z,25.63
2018-05-18T15:54:42.652Z,25.61
2018-05-18T15:57:11.710Z,25.33
2018-05-18T15:59:40.306Z,25.18
2018-05-18T16:02:08.877Z,25.10
2018-05-18T16:04:37.516Z,25.04
2018-05-18T16:07:06.101Z,24.71
2018-05-18T16:09:34.672Z,24.13
2018-05-18T16:12:03.262Z,23.88
2018-05-18T16:14:31.832Z,23.66
2018-05-18T16:17:00.425Z,23.39
2018-05-18T16:19:28.974Z,23.12
2018-05-18T16:21:57.526Z,23.05
2018-05-18T16:24:26.075Z,22.90
2018-05-18T16:26:54.638Z,22.86
2018-05-18T16:29:23.290Z,22.86
2018-05-18T16:31:51.899Z,22.78
2018-05-18T16:34:20.472Z,22.68
2018-05-18T16:36:49.036Z,22.60
2018-05-18T16:39:17.643Z,22.54
2018-05-18T16:41:46.253Z,22.52
2018-05-18T16:44:14.847Z,22.49
2018-05-18T16:46:43.459Z,22.50
2018-05-18T16:49:12.085Z,22.47
2018-05-18T16:51:40.648Z,22.41
2018-05-18T16:54:09.216Z,22.36
2018-05-18T16:56:37.828Z,22.26
2018-05-18T16:59:06.385Z,22.20
2018-05-18T17:01:35.072Z,22.17
2018-05-18T17:04:03.664Z,22.14
2018-05-18T17:06:32.324Z,22.13
2018-05-18T17:09:01.009Z,22.06
2018-05-18T17:11:29.645Z,21.99
2018-05-18T17:13:58.195Z,21.97
2018-05-18T17:16:26.767Z,21.96
2018-05-18T17:18:55.363Z,21.93
2018-05-18T17:21:23.927Z,21.88
2018-05-18T17:23:52.530Z,21.85
2018-05-18T17:26:21.103Z,21.79
2018-05-18T17:28:49.743Z,21.73
2018-05-18T17:31:18.348Z,21.68
2018-05-18T17:33:46.909Z,21.58
2018-05-18T17:36:15.470Z,21.54
2018-05-18T17:38:44.027Z,21.53
2018-05-18T17:41:12.608Z,21.45
2018-05-18T17:43:40.982Z,21.45
2018-05-18T17:46:09.346Z,21.44
2018-05-18T17:48:37.903Z,21.41
2018-05-18T17:51:06.510Z,21.37
2018-05-18T17:53:38.943Z,21.35
2018-05-18T17:56:07.568Z,21.32
2018-05-18T17:58:36.127Z,21.34
2018-05-18T18:01:04.716Z,21.32
2018-05-18T18:03:33.286Z,21.29
2018-05-18T18:06:02.031Z,21.26
2018-05-18T18:08:30.592Z,21.22
2018-05-18T18:10:59.225Z,21.21
2018-05-18T18:13:27.788Z,21.16
2018-05-18T18:15:56.357Z,21.13
2018-05-18T18:18:26.704Z,21.09
2018-05-18T18:20:55.288Z,21.08
2018-05-18T18:23:23.880Z,21.10
2018-05-18T18:25:52.470Z,21.05
2018-05-18T18:28:21.027Z,21.04
2018-05-18T18:30:49.616Z,21.04
2018-05-18T18:33:18.176Z,21.04
2018-05-18T18:35:46.845Z,21.03
2018-05-18T18:38:15.400Z,21.06
2018-05-18T18:40:46.702Z,21.04
2018-05-18T18:43:15.262Z,21.06
2018-05-18T18:45:43.861Z,21.11
2018-05-18T18:48:12.505Z,21.18
2018-05-18T18:50:41.123Z,21.17
2018-05-18T18:53:09.690Z,21.17
2018-05-18T18:55:38.257Z,21.10
2018-05-18T18:58:06.820Z,21.04
2018-05-18T19:00:35.432Z,21.09
2018-05-18T19:03:04.026Z,20.92
2018-05-18T19:05:32.592Z,20.86
2018-05-18T19:08:01.230Z,20.86
2018-05-18T19:10:30.223Z,20.89
2018-05-18T19:13:05.163Z,20.92
2018-05-18T19:15:33.895Z,20.97
2018-05-18T19:18:05.647Z,20.98
2018-05-18T19:20:36.772Z,20.96
2018-05-18T19:23:06.456Z,20.90
2018-05-18T19:25:35.015Z,20.87
2018-05-18T19:28:03.581Z,20.89
2018-05-18T19:30:32.151Z,20.88
2018-05-18T19:33:00.770Z,20.81
2018-05-18T19:35:32.074Z,20.72
2018-05-18T19:38:00.709Z,20.68
2018-05-18T19:40:29.292Z,20.60
